createdAt,value
2022-09-02T00:00:34.502Z,54.68
2022-09-02T00:03:01.155Z,52.60
2022-09-02T00:05:29.130Z,55.03
2022-09-02T00:07:55.675Z,59.71
2022-09-02T00:10:22.341Z,64.09
2022-09-02T00:12:48.987Z,67.53
2022-09-02T00:15:15.607Z,69.61
2022-09-02T00:17:42.144Z,69.99
2022-09-02T00:20:09.992Z,70.30
2022-09-02T00:22:36.539Z,70.37
2022-09-02T00:25:03.114Z,71.60
2022-09-02T00:27:29.622Z,72.07
2022-09-02T00:29:56.113Z,70.26
2022-09-02T00:32:22.670Z,70.89
2022-09-02T00:34:49.478Z,70.77
2022-09-02T00:37:16.034Z,70.75
2022-09-02T00:39:42.733Z,71.33
2022-09-02T00:42:09.671Z,71.48
2022-09-02T00:44:36.142Z,71.79
2022-09-02T00:47:02.710Z,71.55
2022-09-02T00:49:30.349Z,70.79
2022-09-02T00:52:17.979Z,69.75
2022-09-02T00:54:56.527Z,71.00
2022-09-02T00:57:25.089Z,72.28
2022-09-02T00:59:57.775Z,73.68
2022-09-02T01:02:26.067Z,73.84
2022-09-02T01:04:56.785Z,72.08
2022-09-02T01:07:24.413Z,71.07
2022-09-02T01:09:51.422Z,72.65
2022-09-02T01:12:18.293Z,71.22
2022-09-02T01:14:44.786Z,70.52
2022-09-02T01:17:11.305Z,69.99
2022-09-02T01:19:43.545Z,70.77
2022-09-02T01:22:22.550Z,70.38
2022-09-02T01:24:49.843Z,70.63
2022-09-02T01:27:19.054Z,70.40
2022-09-02T01:29:45.721Z,71.15
2022-09-02T01:32:12.238Z,72.47
2022-09-02T01:34:38.722Z,72.26
2022-09-02T01:37:05.317Z,72.36
2022-09-02T01:39:31.785Z,72.87
2022-09-02T01:41:58.517Z,74.69
2022-09-02T01:44:27.571Z,73.65
2022-09-02T01:46:54.219Z,72.69
2022-09-02T01:49:21.856Z,71.64
2022-09-02T01:51:48.564Z,71.60
2022-09-02T01:54:15.914Z,72.11
2022-09-02T01:56:42.550Z,72.19
2022-09-02T01:59:11.506Z,70.96
2022-09-02T02:01:38.052Z,69.92
2022-09-02T02:04:04.809Z,69.97
2022-09-02T02:06:32.035Z,70.07
2022-09-02T02:08:59.306Z,72.10
2022-09-02T02:11:27.145Z,70.79
2022-09-02T02:13:57.875Z,71.37
2022-09-02T02:16:24.475Z,70.87
2022-09-02T02:18:51.102Z,73.34
2022-09-02T02:21:17.677Z,72.60
2022-09-02T02:23:46.966Z,73.90
2022-09-02T02:26:13.506Z,74.41
2022-09-02T02:28:40.051Z,75.13
2022-09-02T02:31:06.933Z,74.90
2022-09-02T02:33:36.256Z,76.25
2022-09-02T02:36:05.574Z,76.63
2022-09-02T02:38:33.282Z,76.78
2022-09-02T02:41:01.951Z,76.45
2022-09-02T02:43:29.065Z,76.09
2022-09-02T02:45:55.750Z,74.45
2022-09-02T02:48:22.603Z,73.53
2022-09-02T02:50:49.120Z,70.58
2022-09-02T02:53:17.490Z,71.01
2022-09-02T02:55:44.349Z,72.32
2022-09-02T02:58:17.026Z,71.15
2022-09-02T03:00:46.211Z,71.52
2022-09-02T03:03:14.105Z,73.61
2022-09-02T03:05:40.810Z,74.19
2022-09-02T03:08:08.828Z,76.12
2022-09-02T03:10:35.466Z,78.03
2022-09-02T03:13:02.518Z,77.99
2022-09-02T03:15:30.714Z,78.38
2022-09-02T03:17:57.738Z,77.68
2022-09-02T03:20:24.655Z,76.16
2022-09-02T03:22:56.595Z,75.91
2022-09-02T03:25:23.738Z,74.70
2022-09-02T03:27:54.471Z,75.03
2022-09-02T03:30:25.187Z,73.96
2022-09-02T03:32:52.406Z,73.37
2022-09-02T03:35:20.447Z,73.24
2022-09-02T03:37:47.781Z,72.53
2022-09-02T03:40:17.271Z,71.66
2022-09-02T03:42:47.130Z,72.45
2022-09-02T03:45:15.980Z,73.95
2022-09-02T03:47:51.338Z,75.72
2022-09-02T03:50:21.550Z,76.53
2022-09-02T03:52:48.437Z,77.39
2022-09-02T03:55:16.228Z,76.49
2022-09-02T03:57:42.790Z,77.19
2022-09-02T04:00:10.255Z,77.08
2022-09-02T04:02:41.884Z,77.04
2022-09-02T04:05:15.867Z,75.03
2022-09-02T04:07:44.437Z,75.20
2022-09-02T04:10:14.075Z,78.04
2022-09-02T04:12:40.930Z,79.99
2022-09-02T04:15:10.107Z,80.20
2022-09-02T04:17:37.511Z,80.44
2022-09-02T04:20:05.049Z,78.61
2022-09-02T04:22:33.313Z,77.45
2022-09-02T04:25:00.140Z,77.69
2022-09-02T04:27:27.195Z,77.47
2022-09-02T04:29:56.304Z,77.27
2022-09-02T04:32:23.698Z,74.11
2022-09-02T04:34:50.987Z,72.67
2022-09-02T04:37:18.988Z,73.14
2022-09-02T04:39:46.519Z,75.14
2022-09-02T04:42:13.283Z,77.28
2022-09-02T04:44:40.364Z,77.83
2022-09-02T04:47:08.009Z,77.99
2022-09-02T04:49:35.058Z,78.28
2022-09-02T04:52:01.621Z,78.72
2022-09-02T04:54:29.053Z,79.02
2022-09-02T04:56:59.007Z,79.31
2022-09-02T04:59:27.093Z,79.19
2022-09-02T05:02:05.302Z,80.67
2022-09-02T05:04:32.522Z,80.57
2022-09-02T05:07:03.256Z,79.57
2022-09-02T05:09:33.149Z,76.53
2022-09-02T05:12:04.293Z,74.91
2022-09-02T05:14:51.203Z,75.02
2022-09-02T05:17:19.994Z,77.61
2022-09-02T05:19:48.015Z,78.39
2022-09-02T05:22:15.785Z,78.15
2022-09-02T05:24:43.294Z,78.56
2022-09-02T05:27:13.277Z,79.00
2022-09-02T05:29:42.915Z,79.63
2022-09-02T05:32:12.061Z,76.48
2022-09-02T05:34:39.838Z,74.73
2022-09-02T05:37:06.394Z,74.78
2022-09-02T05:39:34.745Z,74.03
2022-09-02T05:42:01.596Z,74.53
2022-09-02T05:44:30.550Z,73.14
2022-09-02T05:46:58.908Z,72.06
2022-09-02T05:49:27.595Z,72.37
2022-09-02T05:52:04.374Z,70.13
2022-09-02T05:54:39.998Z,68.60
2022-09-02T05:57:13.720Z,70.54
2022-09-02T05:59:49.090Z,69.90
2022-09-02T06:02:19.295Z,64.70
2022-09-02T06:04:47.059Z,64.97
2022-09-02T06:07:14.902Z,64.93
2022-09-02T06:09:44.966Z,63.01
2022-09-02T06:12:13.145Z,62.15
2022-09-02T06:14:40.738Z,57.61
2022-09-02T06:17:07.848Z,56.71
2022-09-02T06:19:40.691Z,58.11
2022-09-02T06:22:07.890Z,59.39
2022-09-02T06:24:38.456Z,59.20
2022-09-02T06:27:09.517Z,60.23
2022-09-02T06:29:38.994Z,62.23
2022-09-02T06:32:07.302Z,64.48
2022-09-02T06:34:35.257Z,64.18
2022-09-02T06:37:02.877Z,62.85
2022-09-02T06:39:31.502Z,65.48
2022-09-02T06:41:59.119Z,66.05
2022-09-02T06:44:29.394Z,65.96
2022-09-02T06:46:59.726Z,66.57
2022-09-02T06:49:28.430Z,63.27
2022-09-02T06:51:56.837Z,63.85
2022-09-02T06:54:28.854Z,62.18
2022-09-02T06:57:05.598Z,62.21
2022-09-02T06:59:33.372Z,59.53
2022-09-02T07:02:00.714Z,56.85
2022-09-02T07:04:46.925Z,59.07
2022-09-02T07:07:17.693Z,56.29
2022-09-02T07:10:00.160Z,57.67
2022-09-02T07:12:27.362Z,57.04
2022-09-02T07:15:01.980Z,55.30
2022-09-02T07:17:35.822Z,53.66
2022-09-02T07:20:05.650Z,49.66
2022-09-02T07:22:39.014Z,51.04
2022-09-02T07:25:08.289Z,51.20
2022-09-02T07:27:35.759Z,49.12
2022-09-02T07:30:04.634Z,51.43
2022-09-02T07:32:31.476Z,49.05
2022-09-02T07:34:58.120Z,48.22
2022-09-02T07:37:25.150Z,46.33
2022-09-02T07:39:53.623Z,45.55
2022-09-02T07:42:20.439Z,44.83
2022-09-02T07:44:47.723Z,44.43
2022-09-02T07:47:14.675Z,43.81
2022-09-02T07:52:31.301Z,42.46
2022-09-02T07:54:58.206Z,43.39
2022-09-02T07:57:25.666Z,45.81
2022-09-02T07:59:52.307Z,46.28
2022-09-02T08:02:19.338Z,42.36
2022-09-02T08:04:46.577Z,41.35
2022-09-02T08:07:14.850Z,41.82
2022-09-02T08:09:41.431Z,42.05
2022-09-02T08:12:07.983Z,37.38
2022-09-02T08:14:34.555Z,38.67
2022-09-02T08:17:01.201Z,36.83
2022-09-02T08:19:27.811Z,38.55
2022-09-02T08:21:55.255Z,41.74
2022-09-02T08:24:21.917Z,40.32
2022-09-02T08:26:48.479Z,40.72
2022-09-02T08:29:15.513Z,39.39
2022-09-02T08:31:42.019Z,37.44
2022-09-02T08:34:08.554Z,33.38
2022-09-02T08:36:35.017Z,37.73
2022-09-02T08:39:02.619Z,32.89
2022-09-02T08:41:49.665Z,33.72
2022-09-02T08:44:21.590Z,36.37
2022-09-02T08:46:50.474Z,34.48
2022-09-02T08:49:26.159Z,32.96
2022-09-02T08:51:56.497Z,34.28
2022-09-02T08:54:30.462Z,37.85
2022-09-02T08:56:58.067Z,36.97
2022-09-02T08:59:27.350Z,33.95
2022-09-02T09:02:01.283Z,32.57
2022-09-02T09:04:44.529Z,33.78
2022-09-02T09:07:31.156Z,33.36
2022-09-02T09:10:15.153Z,32.35
2022-09-02T09:13:04.265Z,31.37
2022-09-02T09:15:33.834Z,35.37
2022-09-02T09:18:05.434Z,34.39
2022-09-02T09:20:33.467Z,34.80
2022-09-02T09:23:01.754Z,32.42
2022-09-02T09:25:31.958Z,32.27
2022-09-02T09:27:59.167Z,31.53
2022-09-02T09:30:26.157Z,32.31
2022-09-02T09:32:57.387Z,31.44
2022-09-02T09:35:24.559Z,30.41
2022-09-02T09:37:52.429Z,31.91
2022-09-02T09:40:18.943Z,32.87
2022-09-02T09:42:49.755Z,32.64
2022-09-02T09:45:21.929Z,32.93
2022-09-02T09:48:07.630Z,31.12
2022-09-02T09:50:34.251Z,31.16
2022-09-02T09:53:20.884Z,32.27
2022-09-02T09:56:01.509Z,31.66
2022-09-02T09:58:40.596Z,31.08
2022-09-02T10:01:15.575Z,29.33
2022-09-02T10:03:47.959Z,30.65
2022-09-02T10:06:19.102Z,28.03
2022-09-02T10:08:56.306Z,29.19
2022-09-02T10:11:26.740Z,30.09
2022-09-02T10:14:00.965Z,27.62
2022-09-02T10:16:30.719Z,28.53
2022-09-02T10:19:20.251Z,28.76
2022-09-02T10:21:46.698Z,29.41
2022-09-02T10:24:32.021Z,28.86
2022-09-02T10:27:00.374Z,29.22
2022-09-02T10:29:26.905Z,29.68
2022-09-02T10:32:19.681Z,29.35
2022-09-02T10:34:54.250Z,27.94
2022-09-02T10:37:21.586Z,26.62
2022-09-02T10:40:03.847Z,28.27
2022-09-02T10:42:33.218Z,26.73
2022-09-02T10:45:02.783Z,28.78
2022-09-02T10:47:41.295Z,31.59
2022-09-02T10:50:07.851Z,33.14
2022-09-02T10:52:38.551Z,26.79
2022-09-02T10:55:19.289Z,26.13
2022-09-02T10:57:49.702Z,26.37
2022-09-02T11:00:18.628Z,27.83
2022-09-02T11:02:51.818Z,27.60
2022-09-02T11:05:21.423Z,26.91
2022-09-02T11:08:08.009Z,28.71
2022-09-02T11:10:37.310Z,33.12
2022-09-02T11:13:10.061Z,30.45
2022-09-02T11:15:48.955Z,25.34
2022-09-02T11:18:35.551Z,26.02
2022-09-02T11:21:02.395Z,26.20
2022-09-02T11:23:38.883Z,26.17
2022-09-02T11:26:11.522Z,29.03
2022-09-02T11:28:52.570Z,26.92
2022-09-02T11:31:27.506Z,26.64
2022-09-02T11:33:58.363Z,27.40
2022-09-02T11:36:26.407Z,27.59
2022-09-02T11:38:59.030Z,28.86
2022-09-02T11:41:36.483Z,29.00
2022-09-02T11:44:17.362Z,28.01
2022-09-02T11:46:46.872Z,27.45
2022-09-02T11:49:32.760Z,26.18
2022-09-02T11:52:17.699Z,26.36
2022-09-02T11:54:47.572Z,26.76
2022-09-02T11:57:20.820Z,27.23
2022-09-02T11:59:50.678Z,26.50
2022-09-02T12:02:35.888Z,25.72
2022-09-02T12:05:21.356Z,28.04
2022-09-02T12:07:49.193Z,28.95
2022-09-02T12:10:35.068Z,28.48
2022-09-02T12:13:03.118Z,30.57
2022-09-02T12:15:29.665Z,26.60
2022-09-02T12:17:56.484Z,27.51
2022-09-02T12:20:51.133Z,29.15
2022-09-02T12:23:36.753Z,26.71
2022-09-02T12:26:06.962Z,27.89
2022-09-02T12:28:33.856Z,26.96
2022-09-02T12:31:08.226Z,29.08
2022-09-02T12:33:36.610Z,26.78
2022-09-02T12:36:05.019Z,27.75
2022-09-02T12:38:31.689Z,27.90
2022-09-02T12:41:13.376Z,28.51
2022-09-02T12:43:44.574Z,28.31
2022-09-02T12:46:21.438Z,28.51
2022-09-02T12:48:52.207Z,29.47
2022-09-02T12:51:37.297Z,32.10
2022-09-02T12:54:05.581Z,30.25
2022-09-02T12:56:32.092Z,28.92
2022-09-02T12:59:02.446Z,28.12
2022-09-02T13:01:41.368Z,28.52
2022-09-02T13:04:17.658Z,29.89
2022-09-02T13:06:45.192Z,28.56
2022-09-02T13:09:34.409Z,29.10
2022-09-02T13:12:17.194Z,28.79
2022-09-02T13:15:06.942Z,32.73
2022-09-02T13:17:48.854Z,30.81
2022-09-02T13:20:20.036Z,32.91
2022-09-02T13:23:05.355Z,32.98
2022-09-02T13:25:32.800Z,28.41
2022-09-02T13:27:59.312Z,27.42
2022-09-02T13:30:32.031Z,29.74
2022-09-02T13:33:11.954Z,31.69
2022-09-02T13:35:39.773Z,29.33
2022-09-02T13:40:43.926Z,31.65
2022-09-02T13:43:12.396Z,32.11
2022-09-02T13:45:38.909Z,31.66
2022-09-02T13:48:10.736Z,32.93
2022-09-02T13:50:47.352Z,31.87
2022-09-02T13:56:25.051Z,29.90
2022-09-02T13:58:52.498Z,31.84
2022-09-02T14:01:20.863Z,29.78
2022-09-02T14:03:50.224Z,29.76
2022-09-02T14:06:19.179Z,28.92
2022-09-02T14:08:46.363Z,27.71
2022-09-02T14:11:17.104Z,27.98
2022-09-02T14:13:46.483Z,28.61
2022-09-02T14:16:34.606Z,28.18
2022-09-02T14:19:07.165Z,27.40
2022-09-02T14:21:34.349Z,27.73
2022-09-02T14:24:01.419Z,27.23
2022-09-02T14:26:34.023Z,29.27
2022-09-02T14:29:00.689Z,28.47
2022-09-02T14:31:30.757Z,28.73
2022-09-02T14:33:57.870Z,28.83
2022-09-02T14:36:24.325Z,29.21
2022-09-02T14:38:52.624Z,31.70
2022-09-02T14:41:26.680Z,29.27
2022-09-02T14:43:55.333Z,29.47
2022-09-02T14:46:42.084Z,30.88
2022-09-02T14:49:10.219Z,30.35
2022-09-02T14:51:43.762Z,32.64
2022-09-02T14:54:11.225Z,33.17
2022-09-02T14:56:49.143Z,32.61
2022-09-02T14:59:15.660Z,32.28
2022-09-02T15:01:52.979Z,33.44
2022-09-02T15:04:19.773Z,31.22
2022-09-02T15:06:46.872Z,32.77
2022-09-02T15:09:17.194Z,33.21
2022-09-02T15:11:53.246Z,33.54
2022-09-02T15:14:19.786Z,33.98
2022-09-02T15:16:46.324Z,34.87
2022-09-02T15:19:12.814Z,34.58
2022-09-02T15:21:40.354Z,34.66
2022-09-02T15:24:06.939Z,34.09
2022-09-02T15:26:33.594Z,33.74
2022-09-02T15:29:00.166Z,34.20
2022-09-02T15:31:26.722Z,34.14
2022-09-02T15:33:53.375Z,34.91
2022-09-02T15:36:21.256Z,34.39
2022-09-02T15:38:47.763Z,34.49
2022-09-02T15:41:15.598Z,34.33
2022-09-02T15:43:42.631Z,35.14
2022-09-02T15:46:16.895Z,35.00
2022-09-02T15:48:43.398Z,34.75
2022-09-02T15:51:13.814Z,34.83
2022-09-02T15:53:40.350Z,35.26
2022-09-02T15:56:27.617Z,35.70
2022-09-02T15:58:57.866Z,35.81
2022-09-02T16:01:29.082Z,35.55
2022-09-02T16:03:56.901Z,36.93
2022-09-02T16:06:23.516Z,36.87
2022-09-02T16:08:50.249Z,36.45
2022-09-02T16:11:17.356Z,36.37
2022-09-02T16:13:43.913Z,36.34
2022-09-02T16:16:11.307Z,36.83
2022-09-02T16:18:38.383Z,36.65
2022-09-02T16:21:08.688Z,36.91
2022-09-02T16:23:35.606Z,36.89
2022-09-02T16:26:11.305Z,36.88
2022-09-02T16:28:38.714Z,38.18
2022-09-02T16:31:06.479Z,38.17
2022-09-02T16:33:35.126Z,37.83
2022-09-02T16:36:02.321Z,38.46
2022-09-02T16:38:28.907Z,39.94
2022-09-02T16:40:57.066Z,39.76
2022-09-02T16:43:24.706Z,39.83
2022-09-02T16:45:52.947Z,38.91
2022-09-02T16:48:25.100Z,39.96
2022-09-02T16:50:52.357Z,40.34
2022-09-02T16:53:19.134Z,40.53
2022-09-02T16:55:46.907Z,41.25
2022-09-02T16:58:14.259Z,41.89
2022-09-02T17:00:41.490Z,42.20
2022-09-02T17:03:09.890Z,41.58
2022-09-02T17:05:36.461Z,42.43
2022-09-02T17:08:03.356Z,42.79
2022-09-02T17:10:30.650Z,42.98
2022-09-02T17:12:57.657Z,43.84
2022-09-02T17:15:24.833Z,43.58
2022-09-02T17:17:51.649Z,43.79
2022-09-02T17:20:18.446Z,43.77
2022-09-02T17:22:45.054Z,43.75
2022-09-02T17:25:11.615Z,43.89
2022-09-02T17:27:38.643Z,43.93
2022-09-02T17:30:06.025Z,44.79
2022-09-02T17:32:32.598Z,44.83
2022-09-02T17:34:59.118Z,46.81
2022-09-02T17:37:26.690Z,47.61
2022-09-02T17:39:53.412Z,50.47
2022-09-02T17:42:21.480Z,50.62
2022-09-02T17:44:48.661Z,50.99
2022-09-02T17:47:16.379Z,54.27
2022-09-02T17:49:44.247Z,54.94
2022-09-02T17:52:12.771Z,55.79
2022-09-02T17:54:39.932Z,57.74
2022-09-02T17:57:23.403Z,59.80
2022-09-02T18:00:10.247Z,60.33
2022-09-02T18:02:37.531Z,61.00
2022-09-02T18:05:14.095Z,61.61
2022-09-02T18:07:40.609Z,60.19
2022-09-02T18:10:07.339Z,61.80
2022-09-02T18:12:36.463Z,60.35
2022-09-02T18:15:04.782Z,60.57
2022-09-02T18:17:38.992Z,62.95
2022-09-02T18:20:11.577Z,64.55
2022-09-02T18:22:46.698Z,63.66
2022-09-02T18:25:24.010Z,61.58
2022-09-02T18:28:05.462Z,64.11
2022-09-02T18:30:50.270Z,63.81
2022-09-02T18:33:20.182Z,64.80
2022-09-02T18:35:55.637Z,65.67
2022-09-02T18:38:29.088Z,65.42
2022-09-02T18:41:04.743Z,65.20
2022-09-02T18:43:50.074Z,64.28
2022-09-02T18:46:17.986Z,64.83
2022-09-02T18:48:46.732Z,65.45
2022-09-02T18:51:36.021Z,65.57
2022-09-02T18:54:09.021Z,66.23
2022-09-02T18:56:36.654Z,65.22
2022-09-02T18:59:07.911Z,66.89
2022-09-02T19:01:39.550Z,68.63
2022-09-02T19:04:06.102Z,69.54
2022-09-02T19:06:36.165Z,68.98
2022-09-02T19:09:12.534Z,69.90
2022-09-02T19:11:39.766Z,69.17
2022-09-02T19:14:26.491Z,69.24
2022-09-02T19:16:53.947Z,68.85
2022-09-02T19:19:20.578Z,68.75
2022-09-02T19:21:51.256Z,68.46
2022-09-02T19:24:21.386Z,69.73
2022-09-02T19:26:48.093Z,69.83
2022-09-02T19:29:15.704Z,70.71
2022-09-02T19:31:43.479Z,72.26
2022-09-02T19:34:10.578Z,73.36
2022-09-02T19:36:40.334Z,74.03
2022-09-02T19:39:08.161Z,72.79
2022-09-02T19:41:34.972Z,72.49
2022-09-02T19:44:01.699Z,75.07
2022-09-02T19:47:07.013Z,75.54
2022-09-02T19:49:14.708Z,73.68
2022-09-02T19:51:42.275Z,74.89
2022-09-02T19:54:09.818Z,74.54
2022-09-02T19:56:36.462Z,74.94
2022-09-02T19:59:03.050Z,74.56
2022-09-02T20:01:29.617Z,75.42
2022-09-02T20:03:56.266Z,75.04
2022-09-02T20:06:22.840Z,74.97
2022-09-02T20:08:49.372Z,75.54
2022-09-02T20:11:17.221Z,75.01
2022-09-02T20:13:44.521Z,74.85
2022-09-02T20:16:21.871Z,75.11
2022-09-02T20:18:49.386Z,76.38
2022-09-02T20:21:39.116Z,76.86
2022-09-02T20:24:09.462Z,78.53
2022-09-02T20:26:39.034Z,76.80
2022-09-02T20:29:15.555Z,77.73
2022-09-02T20:31:52.478Z,75.93
2022-09-02T20:34:21.929Z,77.64
2022-09-02T20:36:48.455Z,77.39
2022-09-02T20:39:38.235Z,79.21
2022-09-02T20:42:25.740Z,79.60
2022-09-02T20:45:14.008Z,77.22
2022-09-02T20:47:40.450Z,76.92
2022-09-02T20:50:22.257Z,77.01
2022-09-02T20:52:54.529Z,78.36
2022-09-02T20:55:39.164Z,78.01
2022-09-02T20:58:31.345Z,78.26
2022-09-02T21:01:08.623Z,78.22
2022-09-02T21:03:41.186Z,77.26
2022-09-02T21:06:10.836Z,77.95
2022-09-02T21:08:57.268Z,77.54
2022-09-02T21:11:26.992Z,78.83
2022-09-02T21:13:57.138Z,79.16
2022-09-02T21:16:26.777Z,78.21
2022-09-02T21:18:53.238Z,77.64
2022-09-02T21:21:37.037Z,77.33
2022-09-02T21:24:23.856Z,76.82
2022-09-02T21:26:56.760Z,76.38
2022-09-02T21:29:44.599Z,77.22
2022-09-02T21:32:11.417Z,78.13
2022-09-02T21:34:40.786Z,78.85
2022-09-02T21:37:09.322Z,77.24
2022-09-02T21:39:39.222Z,77.39
2022-09-02T21:42:27.451Z,78.84
2022-09-02T21:45:09.569Z,81.61
2022-09-02T21:47:48.357Z,80.97
2022-09-02T21:50:22.213Z,80.60
2022-09-02T21:53:00.725Z,82.59
2022-09-02T21:55:27.262Z,81.74
2022-09-02T21:58:22.827Z,80.67
2022-09-02T22:00:54.137Z,80.38
2022-09-02T22:03:40.141Z,81.32
2022-09-02T22:06:06.691Z,81.78
2022-09-02T22:08:39.696Z,83.62
2022-09-02T22:11:16.865Z,82.42
2022-09-02T22:13:43.446Z,82.25
2022-09-02T22:16:32.418Z,82.00
2022-09-02T22:19:02.228Z,83.09
2022-09-02T22:21:28.801Z,81.21
2022-09-02T22:23:55.847Z,82.06
2022-09-02T22:26:41.189Z,82.08
2022-09-02T22:29:11.481Z,83.95
2022-09-02T22:31:39.272Z,82.81
2022-09-02T22:34:06.943Z,82.13
2022-09-02T22:36:55.262Z,82.07
2022-09-02T22:39:47.987Z,82.89
2022-09-02T22:42:20.094Z,83.87
2022-09-02T22:45:09.462Z,82.82
2022-09-02T22:47:55.577Z,81.84
2022-09-02T22:50:45.834Z,82.68
2022-09-02T22:53:12.891Z,82.82
2022-09-02T22:55:46.387Z,83.86
2022-09-02T22:58:32.138Z,82.80
2022-09-02T23:01:10.872Z,82.87
2022-09-02T23:03:51.312Z,84.19
2022-09-02T23:06:26.981Z,83.19
2022-09-02T23:08:56.686Z,81.72
2022-09-02T23:11:28.154Z,81.38
2022-09-02T23:13:55.891Z,81.45
2022-09-02T23:16:31.891Z,80.78
2022-09-02T23:19:01.479Z,81.44
2022-09-02T23:21:40.637Z,84.56
2022-09-02T23:24:13.315Z,82.70
2022-09-02T23:26:45.118Z,82.61
2022-09-02T23:29:15.712Z,84.52
2022-09-02T23:31:53.037Z,84.94
2022-09-02T23:34:38.721Z,83.18
2022-09-02T23:37:21.057Z,83.13
2022-09-02T23:40:03.067Z,84.63
2022-09-02T23:42:30.382Z,84.29
2022-09-02T23:45:00.442Z,83.46
2022-09-02T23:47:40.543Z,82.90
2022-09-02T23:50:18.578Z,85.05
2022-09-02T23:52:58.838Z,84.64
2022-09-02T23:55:41.658Z,84.41
2022-09-02T23:58:11.272Z,85.59
